createdAt,value
2022-08-19T00:01:42.988Z,6.18
2022-08-19T00:04:14.470Z,5.28
2022-08-19T00:06:44.679Z,5.85
2022-08-19T00:09:15.621Z,5.85
2022-08-19T00:11:44.670Z,6.15
2022-08-19T00:14:15.788Z,6.00
2022-08-19T00:16:45.298Z,5.75
2022-08-19T00:19:13.459Z,5.43
2022-08-19T00:21:41.515Z,5.55
2022-08-19T00:24:11.085Z,5.47
2022-08-19T00:26:39.743Z,5.63
2022-08-19T00:29:09.494Z,5.65
2022-08-19T00:31:38.882Z,6.30
2022-08-19T00:34:06.785Z,5.38
2022-08-19T00:36:34.869Z,5.63
2022-08-19T00:39:03.226Z,5.45
2022-08-19T00:41:31.950Z,5.63
2022-08-19T00:44:02.676Z,5.60
2022-08-19T00:46:33.596Z,5.72
2022-08-19T00:49:07.516Z,5.35
2022-08-19T00:51:35.561Z,5.60
2022-08-19T00:54:04.636Z,5.43
2022-08-19T00:56:33.520Z,5.63
2022-08-19T00:59:03.067Z,6.55
2022-08-19T01:01:31.313Z,6.20
2022-08-19T01:03:59.156Z,6.70
2022-08-19T01:06:28.920Z,6.65
2022-08-19T01:08:57.056Z,5.82
2022-08-19T01:11:24.862Z,6.15
2022-08-19T01:13:54.171Z,6.47
2022-08-19T01:16:25.905Z,6.25
2022-08-19T01:18:53.967Z,6.35
2022-08-19T01:21:29.139Z,6.07
2022-08-19T01:23:58.548Z,6.40
2022-08-19T01:26:27.628Z,6.03
2022-08-19T01:29:00.732Z,6.15
2022-08-19T01:31:32.538Z,5.88
2022-08-19T01:34:01.623Z,6.22
2022-08-19T01:36:35.380Z,6.03
2022-08-19T01:39:10.517Z,5.82
2022-08-19T01:41:38.925Z,5.90
2022-08-19T01:44:17.366Z,6.15
2022-08-19T01:46:48.233Z,6.55
2022-08-19T01:49:18.208Z,6.30
2022-08-19T01:51:46.221Z,6.50
2022-08-19T01:54:27.345Z,6.50
2022-08-19T01:57:04.094Z,6.72
2022-08-19T01:59:33.219Z,6.80
2022-08-19T02:02:01.068Z,6.15
2022-08-19T02:04:28.959Z,6.10
2022-08-19T02:06:57.028Z,6.70
2022-08-19T02:09:26.248Z,6.15
2022-08-19T02:11:54.423Z,6.85
2022-08-19T02:14:22.308Z,6.93
2022-08-19T02:16:50.478Z,6.75
2022-08-19T02:19:19.004Z,6.95
2022-08-19T02:21:47.043Z,6.70
2022-08-19T02:24:14.889Z,7.47
2022-08-19T02:26:44.129Z,6.95
2022-08-19T02:29:13.688Z,7.07
2022-08-19T02:31:41.690Z,7.43
2022-08-19T02:34:09.805Z,7.22
2022-08-19T02:36:37.892Z,7.28
2022-08-19T02:39:09.628Z,6.88
2022-08-19T02:41:37.483Z,6.68
2022-08-19T02:44:22.958Z,7.70
2022-08-19T02:46:56.597Z,7.30
2022-08-19T02:49:24.589Z,6.80
2022-08-19T02:51:52.410Z,7.00
2022-08-19T02:54:20.777Z,7.00
2022-08-19T02:56:48.609Z,6.95
2022-08-19T02:59:17.949Z,7.60
2022-08-19T03:01:48.985Z,6.88
2022-08-19T03:04:18.180Z,7.57
2022-08-19T03:06:48.208Z,6.90
2022-08-19T03:09:16.906Z,7.90
2022-08-19T03:11:44.917Z,7.60
2022-08-19T03:14:13.821Z,7.95
2022-08-19T03:16:46.165Z,7.88
2022-08-19T03:19:14.758Z,7.82
2022-08-19T03:21:45.535Z,8.38
2022-08-19T03:24:14.548Z,7.38
2022-08-19T03:26:43.939Z,7.45
2022-08-19T03:29:13.840Z,7.03
2022-08-19T03:31:52.586Z,7.88
2022-08-19T03:34:22.966Z,7.57
2022-08-19T03:36:53.017Z,8.90
2022-08-19T03:39:20.883Z,7.65
2022-08-19T03:42:32.306Z,7.40
2022-08-19T03:44:39.726Z,7.85
2022-08-19T03:47:09.314Z,7.47
2022-08-19T03:49:37.642Z,7.15
2022-08-19T03:52:08.656Z,8.35
2022-08-19T03:54:39.101Z,7.43
2022-08-19T03:57:07.503Z,7.97
2022-08-19T03:59:38.138Z,7.43
2022-08-19T04:02:11.876Z,7.80
2022-08-19T04:04:41.417Z,7.78
2022-08-19T04:07:10.382Z,8.25
2022-08-19T04:09:38.711Z,7.47
2022-08-19T04:12:07.926Z,8.35
2022-08-19T04:14:36.759Z,7.55
2022-08-19T04:17:06.860Z,7.35
2022-08-19T04:19:37.117Z,8.05
2022-08-19T04:22:05.993Z,7.55
2022-08-19T04:24:34.148Z,7.18
2022-08-19T04:27:03.598Z,7.55
2022-08-19T04:29:32.365Z,7.85
2022-08-19T04:32:08.746Z,7.35
2022-08-19T04:35:01.306Z,7.63
2022-08-19T04:37:29.576Z,7.72
2022-08-19T04:40:21.285Z,7.53
2022-08-19T04:42:49.181Z,7.13
2022-08-19T04:45:17.895Z,7.93
2022-08-19T04:47:57.856Z,7.80
2022-08-19T04:50:28.711Z,7.93
2022-08-19T04:52:57.716Z,8.65
2022-08-19T04:55:26.750Z,8.60
2022-08-19T04:57:54.778Z,8.50
2022-08-19T05:00:23.151Z,8.27
2022-08-19T05:02:51.026Z,9.00
2022-08-19T05:05:19.590Z,7.15
2022-08-19T05:07:49.282Z,8.48
2022-08-19T05:10:17.359Z,7.88
2022-08-19T05:12:45.161Z,8.35
2022-08-19T05:15:13.442Z,8.50
2022-08-19T05:18:02.273Z,8.13
2022-08-19T05:20:48.136Z,8.02
2022-08-19T05:23:22.034Z,9.60
2022-08-19T05:25:51.201Z,9.25
2022-08-19T05:28:19.408Z,8.88
2022-08-19T05:30:47.791Z,8.52
2022-08-19T05:33:16.200Z,9.25
2022-08-19T05:35:45.097Z,9.75
2022-08-19T05:38:13.656Z,10.35
2022-08-19T05:40:42.896Z,10.60
2022-08-19T05:43:11.072Z,9.63
2022-08-19T05:45:42.924Z,11.00
2022-08-19T05:48:12.507Z,10.95
2022-08-19T05:50:41.485Z,11.48
2022-08-19T05:53:10.341Z,12.43
2022-08-19T05:55:40.599Z,14.52
2022-08-19T05:58:10.045Z,16.10
2022-08-19T06:00:39.186Z,14.63
2022-08-19T06:03:12.462Z,16.08
2022-08-19T06:05:49.660Z,17.17
2022-08-19T06:08:20.580Z,16.50
2022-08-19T06:11:14.958Z,15.90
2022-08-19T06:13:44.237Z,17.83
2022-08-19T06:16:12.239Z,16.83
2022-08-19T06:18:40.085Z,19.02
2022-08-19T06:21:07.914Z,18.30
2022-08-19T06:23:35.875Z,19.75
2022-08-19T06:26:03.816Z,18.05
2022-08-19T06:28:31.697Z,18.70
2022-08-19T06:31:02.636Z,19.92
2022-08-19T06:33:30.660Z,21.92
2022-08-19T06:35:59.743Z,22.52
2022-08-19T06:38:27.649Z,23.75
2022-08-19T06:41:02.923Z,25.23
2022-08-19T06:43:41.229Z,23.10
2022-08-19T06:46:14.837Z,24.90
2022-08-19T06:48:45.391Z,25.10
2022-08-19T06:51:19.260Z,26.98
2022-08-19T06:53:48.245Z,28.48
2022-08-19T06:56:18.172Z,28.73
2022-08-19T06:58:47.361Z,28.25
2022-08-19T07:01:16.795Z,29.67
2022-08-19T07:03:44.885Z,28.65
2022-08-19T07:06:41.246Z,30.75
2022-08-19T07:09:05.050Z,29.65
2022-08-19T07:11:34.223Z,33.42
2022-08-19T07:14:02.429Z,34.22
2022-08-19T07:16:32.849Z,33.92
2022-08-19T07:19:12.540Z,34.70
2022-08-19T07:21:45.012Z,31.10
2022-08-19T07:24:13.261Z,30.25
2022-08-19T07:26:43.532Z,34.22
2022-08-19T07:29:12.614Z,34.97
2022-08-19T07:31:43.669Z,32.90
2022-08-19T07:34:14.382Z,30.90
2022-08-19T07:36:44.230Z,30.13
2022-08-19T07:39:15.258Z,30.70
2022-08-19T07:41:43.728Z,29.65
2022-08-19T07:44:13.843Z,30.45
2022-08-19T07:46:48.168Z,29.25
2022-08-19T07:49:20.312Z,26.05
2022-08-19T07:51:49.929Z,27.58
2022-08-19T07:54:18.799Z,27.17
2022-08-19T07:56:46.772Z,25.15
2022-08-19T07:59:15.764Z,24.15
2022-08-19T08:01:45.673Z,24.95
2022-08-19T08:04:31.265Z,24.67
2022-08-19T08:07:16.815Z,24.13
2022-08-19T08:09:49.690Z,22.33
2022-08-19T08:12:33.638Z,21.95
2022-08-19T08:15:03.805Z,23.08
2022-08-19T08:17:49.109Z,22.38
2022-08-19T08:20:20.258Z,21.33
2022-08-19T08:23:07.360Z,21.85
2022-08-19T08:25:37.469Z,18.95
2022-08-19T08:28:06.455Z,19.25
2022-08-19T08:30:36.828Z,15.60
2022-08-19T08:33:06.727Z,14.05
2022-08-19T08:35:35.404Z,14.40
2022-08-19T08:38:04.701Z,14.38
2022-08-19T08:40:44.331Z,15.02
2022-08-19T08:43:22.308Z,14.95
2022-08-19T08:45:57.669Z,13.25
2022-08-19T08:48:37.858Z,13.93
2022-08-19T08:51:09.788Z,11.50
2022-08-19T08:53:41.814Z,14.57
2022-08-19T08:56:13.473Z,13.65
2022-08-19T08:58:54.640Z,12.60
2022-08-19T09:01:23.471Z,14.20
2022-08-19T09:03:52.991Z,14.15
2022-08-19T09:06:26.848Z,11.93
2022-08-19T09:09:04.532Z,9.60
2022-08-19T09:11:52.772Z,9.50
2022-08-19T09:14:51.131Z,9.52
2022-08-19T09:17:21.281Z,10.63
2022-08-19T09:19:54.297Z,11.63
2022-08-19T09:22:25.550Z,12.43
2022-08-19T09:24:54.559Z,13.82
2022-08-19T09:27:42.244Z,14.20
2022-08-19T09:30:16.263Z,13.55
2022-08-19T09:32:44.932Z,16.73
2022-08-19T09:35:15.266Z,17.17
2022-08-19T09:37:44.498Z,19.30
2022-08-19T09:40:15.752Z,19.05
2022-08-19T09:42:50.248Z,16.70
2022-08-19T09:45:23.315Z,17.70
2022-08-19T09:47:54.218Z,17.33
2022-08-19T09:50:25.654Z,17.30
2022-08-19T09:52:57.207Z,19.05
2022-08-19T09:55:31.026Z,19.40
2022-08-19T09:57:59.332Z,18.63
2022-08-19T10:00:27.718Z,19.85
2022-08-19T10:02:56.014Z,18.80
2022-08-19T10:05:43.378Z,20.05
2022-08-19T10:08:13.449Z,20.20
2022-08-19T10:10:44.186Z,18.85
2022-08-19T10:13:15.711Z,16.92
2022-08-19T10:15:47.392Z,19.08
2022-08-19T10:18:16.641Z,19.00
2022-08-19T10:20:51.632Z,19.60
2022-08-19T10:23:20.114Z,20.92
2022-08-19T10:25:48.742Z,20.52
2022-08-19T10:28:19.330Z,17.95
2022-08-19T10:30:48.951Z,18.88
2022-08-19T10:33:38.619Z,19.00
2022-08-19T10:36:09.079Z,20.73
2022-08-19T10:38:37.634Z,19.88
2022-08-19T10:41:11.032Z,15.60
2022-08-19T10:43:40.631Z,16.20
2022-08-19T10:46:13.731Z,15.02
2022-08-19T10:48:42.491Z,15.95
2022-08-19T10:51:30.348Z,16.02
2022-08-19T10:53:59.250Z,15.38
2022-08-19T10:56:45.959Z,13.95
2022-08-19T10:59:15.167Z,13.57
2022-08-19T11:01:45.325Z,12.43
2022-08-19T11:04:14.723Z,12.55
2022-08-19T11:06:44.491Z,11.25
2022-08-19T11:09:13.910Z,12.23
2022-08-19T11:11:42.377Z,12.85
2022-08-19T11:14:11.773Z,12.13
2022-08-19T11:16:40.438Z,10.75
2022-08-19T11:19:10.063Z,10.82
2022-08-19T11:21:40.088Z,10.88
2022-08-19T11:24:12.821Z,11.05
2022-08-19T11:26:42.974Z,11.35
2022-08-19T11:29:13.755Z,9.70
2022-08-19T11:31:43.550Z,12.32
2022-08-19T11:34:14.275Z,11.02
2022-08-19T11:36:45.115Z,11.07
2022-08-19T11:39:16.410Z,10.68
2022-08-19T11:41:44.856Z,9.55
2022-08-19T11:44:15.055Z,9.20
2022-08-19T11:46:46.540Z,9.95
2022-08-19T11:49:16.419Z,9.15
2022-08-19T11:51:45.424Z,9.30
2022-08-19T11:54:16.996Z,8.82
2022-08-19T11:56:46.548Z,9.43
2022-08-19T11:59:15.040Z,9.55
2022-08-19T12:01:43.725Z,9.68
2022-08-19T12:04:12.569Z,9.82
2022-08-19T12:06:42.867Z,9.10
2022-08-19T12:09:12.579Z,7.72
2022-08-19T12:11:42.018Z,8.50
2022-08-19T12:14:15.168Z,8.35
2022-08-19T12:16:52.436Z,8.48
2022-08-19T12:19:21.860Z,8.75
2022-08-19T12:21:51.495Z,9.50
2022-08-19T12:24:24.082Z,8.35
2022-08-19T12:26:56.524Z,8.65
2022-08-19T12:29:29.570Z,8.85
2022-08-19T12:32:02.282Z,8.48
2022-08-19T12:34:33.298Z,8.40
2022-08-19T12:37:04.129Z,7.93
2022-08-19T12:39:32.523Z,6.95
2022-08-19T12:42:01.792Z,7.60
2022-08-19T12:44:32.047Z,7.90
2022-08-19T12:47:01.745Z,8.52
2022-08-19T12:49:54.132Z,7.78
2022-08-19T12:52:23.804Z,6.32
2022-08-19T12:54:53.737Z,6.03
2022-08-19T12:57:31.880Z,6.00
2022-08-19T13:00:01.966Z,6.07
2022-08-19T13:02:38.772Z,6.55
2022-08-19T13:05:09.908Z,6.10
2022-08-19T13:07:39.462Z,6.32
2022-08-19T13:10:09.330Z,6.18
2022-08-19T13:12:38.592Z,6.20
2022-08-19T13:15:10.851Z,5.88
2022-08-19T13:17:42.105Z,6.43
2022-08-19T13:20:12.065Z,5.70
2022-08-19T13:22:40.378Z,5.95
2022-08-19T13:25:11.821Z,5.57
2022-08-19T13:27:41.909Z,6.10
2022-08-19T13:30:29.788Z,6.50
2022-08-19T13:33:20.583Z,6.20
2022-08-19T13:35:50.718Z,6.97
2022-08-19T13:38:21.540Z,6.88
2022-08-19T13:40:51.270Z,7.18
2022-08-19T13:43:22.915Z,6.70
2022-08-19T13:45:54.731Z,6.88
2022-08-19T13:48:23.153Z,6.32
2022-08-19T13:50:51.336Z,6.78
2022-08-19T13:53:19.872Z,6.63
2022-08-19T13:55:47.773Z,6.03
2022-08-19T13:58:17.027Z,6.63
2022-08-19T14:00:48.486Z,6.57
2022-08-19T14:03:17.103Z,7.07
2022-08-19T14:05:45.024Z,7.25
2022-08-19T14:08:15.145Z,7.35
2022-08-19T14:10:45.210Z,7.72
2022-08-19T14:13:16.775Z,7.30
2022-08-19T14:15:46.370Z,7.45
2022-08-19T14:18:14.173Z,7.85
2022-08-19T14:20:42.306Z,9.07
2022-08-19T14:23:10.307Z,8.82
2022-08-19T14:25:38.701Z,9.13
2022-08-19T14:28:07.912Z,8.18
2022-08-19T14:30:38.641Z,8.57
2022-08-19T14:33:10.926Z,7.75
2022-08-19T14:35:39.731Z,8.07
2022-08-19T14:38:09.131Z,7.35
2022-08-19T14:40:37.003Z,6.70
2022-08-19T14:43:06.944Z,6.93
2022-08-19T14:45:37.420Z,7.65
2022-08-19T14:48:07.377Z,7.07
2022-08-19T14:50:36.939Z,6.57
2022-08-19T14:53:12.449Z,6.32
2022-08-19T14:55:43.887Z,5.68
2022-08-19T14:58:28.470Z,5.75
2022-08-19T15:00:58.591Z,5.90
2022-08-19T15:03:28.318Z,5.63
2022-08-19T15:05:58.473Z,5.72
2022-08-19T15:08:27.034Z,5.65
2022-08-19T15:10:55.468Z,5.43
2022-08-19T15:13:23.361Z,6.18
2022-08-19T15:15:52.620Z,7.15
2022-08-19T15:18:21.405Z,6.55
2022-08-19T15:20:51.875Z,6.00
2022-08-19T15:23:21.805Z,6.35
2022-08-19T15:25:56.490Z,6.60
2022-08-19T15:28:25.115Z,7.40
2022-08-19T15:30:53.665Z,7.50
2022-08-19T15:33:21.990Z,7.10
2022-08-19T15:35:52.480Z,7.47
2022-08-19T15:38:22.060Z,7.35
2022-08-19T15:40:50.691Z,8.50
2022-08-19T15:43:21.318Z,8.48
2022-08-19T15:45:49.796Z,8.15
2022-08-19T15:48:18.055Z,7.72
2022-08-19T15:50:45.932Z,7.30
2022-08-19T15:53:15.157Z,7.28
2022-08-19T15:55:45.612Z,7.15
2022-08-19T15:58:32.769Z,7.63
2022-08-19T16:01:20.665Z,7.60
2022-08-19T16:04:14.227Z,7.72
2022-08-19T16:06:46.006Z,7.70
2022-08-19T16:09:16.993Z,8.50
2022-08-19T16:11:56.619Z,8.48
2022-08-19T16:14:26.153Z,8.80
2022-08-19T16:16:54.945Z,9.85
2022-08-19T16:19:22.802Z,9.60
2022-08-19T16:21:53.682Z,10.23
2022-08-19T16:24:24.789Z,10.00
2022-08-19T16:26:52.672Z,10.98
2022-08-19T16:29:34.164Z,11.20
2022-08-19T16:32:03.270Z,10.57
2022-08-19T16:34:31.935Z,11.05
2022-08-19T16:37:01.562Z,10.30
2022-08-19T16:39:30.801Z,11.45
2022-08-19T16:41:59.144Z,10.45
2022-08-19T16:44:27.461Z,11.02
2022-08-19T16:46:59.493Z,10.52
2022-08-19T16:49:52.990Z,10.48
2022-08-19T16:52:16.334Z,10.05
2022-08-19T16:54:45.643Z,9.57
2022-08-19T16:57:14.107Z,9.40
2022-08-19T16:59:48.343Z,9.50
2022-08-19T17:02:17.986Z,8.63
2022-08-19T17:04:55.750Z,8.52
2022-08-19T17:07:27.638Z,8.45
2022-08-19T17:09:57.815Z,8.40
2022-08-19T17:12:30.362Z,7.95
2022-08-19T17:15:00.803Z,10.02
2022-08-19T17:17:29.615Z,8.57
2022-08-19T17:19:57.882Z,8.18
2022-08-19T17:22:25.754Z,7.63
2022-08-19T17:24:56.253Z,8.05
2022-08-19T17:27:32.077Z,8.27
2022-08-19T17:30:00.973Z,8.50
2022-08-19T17:32:29.611Z,8.60
2022-08-19T17:34:57.656Z,9.32
2022-08-19T17:37:25.548Z,11.98
2022-08-19T17:39:53.632Z,9.43
2022-08-19T17:42:21.484Z,9.30
2022-08-19T17:44:51.158Z,9.10
2022-08-19T17:47:19.739Z,9.77
2022-08-19T17:49:48.421Z,9.52
2022-08-19T17:52:16.307Z,12.45
2022-08-19T17:54:44.190Z,8.77
2022-08-19T17:57:12.540Z,9.52
2022-08-19T17:59:40.488Z,10.80
2022-08-19T18:02:11.271Z,11.32
2022-08-19T18:04:39.929Z,10.57
2022-08-19T18:07:07.840Z,10.48
2022-08-19T18:09:41.903Z,11.80
2022-08-19T18:12:12.170Z,11.68
2022-08-19T18:14:41.415Z,12.23
2022-08-19T18:17:12.473Z,11.73
2022-08-19T18:19:43.246Z,12.52
2022-08-19T18:22:14.389Z,11.70
2022-08-19T18:24:45.876Z,13.25
2022-08-19T18:27:14.124Z,13.25
2022-08-19T18:29:41.940Z,11.70
2022-08-19T18:32:13.697Z,10.23
2022-08-19T18:34:43.057Z,9.80
2022-08-19T18:37:14.249Z,9.98
2022-08-19T18:39:59.449Z,8.93
2022-08-19T18:42:44.574Z,9.07
2022-08-19T18:45:29.962Z,8.15
2022-08-19T18:48:26.422Z,8.15
2022-08-19T18:50:56.607Z,7.45
2022-08-19T18:53:24.551Z,8.00
2022-08-19T18:55:55.495Z,8.00
2022-08-19T18:58:26.353Z,6.45
2022-08-19T19:00:57.069Z,7.10
2022-08-19T19:03:29.013Z,6.53
2022-08-19T19:05:57.021Z,8.52
2022-08-19T19:08:27.222Z,9.00
2022-08-19T19:10:56.009Z,7.05
2022-08-19T19:13:23.962Z,6.75
2022-08-19T19:15:52.028Z,6.30
2022-08-19T19:18:19.886Z,6.57
2022-08-19T19:20:49.187Z,6.35
2022-08-19T19:23:17.096Z,6.57
2022-08-19T19:25:50.849Z,7.07
2022-08-19T19:28:27.733Z,6.80
2022-08-19T19:30:58.653Z,7.47
2022-08-19T19:33:26.653Z,7.22
2022-08-19T19:35:56.302Z,7.13
2022-08-19T19:38:24.287Z,6.55
2022-08-19T19:40:52.511Z,6.95
2022-08-19T19:43:20.438Z,6.75
2022-08-19T19:45:49.634Z,7.15
2022-08-19T19:48:17.544Z,7.80
2022-08-19T19:50:53.997Z,7.60
2022-08-19T19:53:27.988Z,7.50
2022-08-19T19:55:58.989Z,7.53
2022-08-19T19:58:29.170Z,8.10
2022-08-19T20:00:58.743Z,7.13
2022-08-19T20:03:27.260Z,7.82
2022-08-19T20:05:59.139Z,7.32
2022-08-19T20:08:47.075Z,8.25
2022-08-19T20:11:26.467Z,8.05
2022-08-19T20:13:54.506Z,8.80
2022-08-19T20:16:25.369Z,8.85
2022-08-19T20:18:53.405Z,9.68
2022-08-19T20:21:27.133Z,9.65
2022-08-19T20:24:09.324Z,8.30
2022-08-19T20:26:38.521Z,9.65
2022-08-19T20:29:13.697Z,8.50
2022-08-19T20:31:59.101Z,9.43
2022-08-19T20:34:27.716Z,8.77
2022-08-19T20:36:55.618Z,9.70
2022-08-19T20:39:25.998Z,9.80
2022-08-19T20:41:56.507Z,8.55
2022-08-19T20:44:25.798Z,8.45
2022-08-19T20:46:55.477Z,9.00
2022-08-19T20:49:27.088Z,8.57
2022-08-19T20:51:55.663Z,9.23
2022-08-19T20:54:25.109Z,8.63
2022-08-19T20:56:53.213Z,9.10
2022-08-19T20:59:21.675Z,9.20
2022-08-19T21:01:51.709Z,9.27
2022-08-19T21:04:21.254Z,9.15
2022-08-19T21:06:49.349Z,9.10
2022-08-19T21:09:17.417Z,9.85
2022-08-19T21:11:46.769Z,8.88
2022-08-19T21:14:14.619Z,8.15
2022-08-19T21:16:42.682Z,9.75
2022-08-19T21:19:10.633Z,9.20
2022-08-19T21:21:38.658Z,9.23
2022-08-19T21:24:07.320Z,9.07
2022-08-19T21:26:35.201Z,9.82
2022-08-19T21:29:04.727Z,8.85
2022-08-19T21:31:32.680Z,10.38
2022-08-19T21:34:00.883Z,9.02
2022-08-19T21:36:28.761Z,9.75
2022-08-19T21:38:56.620Z,8.93
2022-08-19T21:41:24.656Z,10.25
2022-08-19T21:43:52.593Z,12.23
2022-08-19T21:46:22.626Z,11.27
2022-08-19T21:48:50.457Z,10.00
2022-08-19T21:51:18.294Z,10.88
2022-08-19T21:53:49.025Z,11.23
2022-08-19T21:56:20.992Z,11.02
2022-08-19T21:58:48.795Z,10.73
2022-08-19T22:01:17.098Z,11.73
2022-08-19T22:03:46.309Z,10.52
2022-08-19T22:06:14.146Z,10.18
2022-08-19T22:08:44.650Z,10.52
2022-08-19T22:11:13.028Z,9.75
2022-08-19T22:13:41.489Z,8.88
2022-08-19T22:16:10.814Z,9.50
2022-08-19T22:18:38.959Z,9.23
2022-08-19T22:21:12.006Z,8.27
2022-08-19T22:23:41.524Z,9.88
2022-08-19T22:26:10.276Z,9.05
2022-08-19T22:28:39.613Z,8.75
2022-08-19T22:31:08.136Z,10.93
2022-08-19T22:33:37.418Z,10.10
2022-08-19T22:36:07.520Z,10.98
2022-08-19T22:38:37.383Z,11.60
2022-08-19T22:41:07.670Z,11.70
2022-08-19T22:43:37.503Z,11.18
2022-08-19T22:46:06.481Z,10.50
2022-08-19T22:48:45.680Z,10.55
2022-08-19T22:51:31.082Z,9.88
2022-08-19T22:54:00.829Z,9.98
2022-08-19T22:56:30.713Z,9.98
2022-08-19T22:58:58.692Z,10.32
2022-08-19T23:01:30.218Z,8.40
2022-08-19T23:03:59.906Z,9.65
2022-08-19T23:06:33.451Z,9.10
2022-08-19T23:09:06.715Z,10.32
2022-08-19T23:11:38.231Z,11.95
2022-08-19T23:14:11.211Z,12.13
2022-08-19T23:16:39.572Z,12.10
2022-08-19T23:19:09.743Z,15.07
2022-08-19T23:21:37.909Z,14.48
2022-08-19T23:24:07.606Z,13.98
2022-08-19T23:26:36.184Z,14.30
2022-08-19T23:29:23.113Z,13.93
2022-08-19T23:31:50.988Z,11.52
2022-08-19T23:34:19.081Z,12.10
2022-08-19T23:36:48.357Z,11.18
2022-08-19T23:39:17.872Z,11.20
2022-08-19T23:41:45.699Z,10.18
2022-08-19T23:44:14.529Z,11.20
2022-08-19T23:46:55.250Z,10.63
2022-08-19T23:49:25.171Z,12.65
2022-08-19T23:51:53.320Z,13.35
2022-08-19T23:54:22.563Z,12.40
2022-08-19T23:57:02.235Z,12.07
2022-08-19T23:59:30.159Z,11.60
